Saturday, February 17, 2018, 9:22 PM CST
Back to Local

KENW, Kenosha Regional Airport

Location: Kenosha, WI, United States Lat: 42.6
Local Time: 9:22 PM CST ( 3:22 GMT) Lon: -87.933
Time Zone: US/Central Elev: 741 ft

Show me the last for .
Show Decoded

2018-02-17 20:53 METAR KENW 180253Z 28013G21KT 10SM SCT020 M02/M06 A3003 RMK AO2 PK WND
                 27026/0234 SLP181 60000 T10171056 51024 =
2018-02-17 19:53 METAR KENW 180153Z 28012KT 9SM OVC018 M01/M04 A3002 RMK AO2 SLP176 T10111044 =
2018-02-17 19:23 METAR KENW 180123Z 29012G23KT 7SM BKN017 M01/M04 A3001 RMK AO2 T10111039 =
2018-02-17 18:53 METAR KENW 180053Z 27009KT 5SM BR FEW020 BKN036 M01/M03 A2999 RMK AO2 SNE2354
                 SLP167 P0000 T10111033 =
2018-02-17 18:38 METAR KENW 180038Z 27008KT 5SM BR FEW009 BKN035 OVC060 M01/M03 A2999 RMK AO2
                 SNE2354 P0000 T10111033 =
2018-02-17 18:15 METAR KENW 180015Z 26008KT 5SM BR FEW020 BKN039 OVC060 M01/M03 A2997 RMK AO2
                 SNE2354 P0000 T10061028 =
2018-02-17 18:06 METAR KENW 180006Z 26007KT 5SM BR SCT011 BKN021 OVC044 M01/M02 A2997 RMK AO2
                 SNE2354 P0000 T10061022 =
2018-02-17 17:53 METAR KENW 172353Z 27008KT 3SM -SN BR FEW005 BKN013 OVC029 M01/M02 A2996 RMK AO2
                 SLP157 P0000 60000 T10061022 10017 21006 53009 =
2018-02-17 17:50 METAR KENW 172350Z 27007KT 2 1/2SM -SN BR FEW005 BKN013 OVC024 M01/M02 A2996 RMK
                 AO2 P0000 =
2018-02-17 17:42 METAR KENW 172342Z 28004KT 1 3/4SM -SN BR SCT005 OVC012 M01/M02 A2995 RMK AO2
                 P0000 T10061022 =
2018-02-17 17:30 METAR KENW 172330Z 28004KT 3/4SM -SN BR BKN005 OVC042 00/M02 A2995 RMK AO2 P0000
                 T00001022 =
2018-02-17 17:16 METAR KENW 172316Z 25004KT 1 3/4SM -SN BR SCT005 SCT025 OVC042 M01/M02 A2994 RMK
                 AO2 P0000 T10061022 =
2018-02-17 17:04 METAR KENW 172304Z 20005KT 1SM -SN BR FEW005 BKN026 OVC031 00/M02 A2993 RMK AO2
                 P0000 T00001022 =
2018-02-17 16:53 METAR KENW 172253Z 21006KT 3/4SM -SN BR FEW005 BKN024 OVC032 00/M02 A2993 RMK
                 AO2 SLP148 P0000 T00001017 =
2018-02-17 16:50 METAR KENW 172250Z 21005KT 3/4SM -SN BR FEW005 BKN020 OVC029 00/M02 A2993 RMK
                 AO2 P0000 =
2018-02-17 16:18 METAR KENW 172218Z 23005KT 1/2SM SN FEW008 OVC014 00/M03 A2994 RMK AO2 P0000
                 T00001028 =
2018-02-17 16:11 METAR KENW 172211Z 25006KT 1/2SM SN FEW011 BKN017 OVC029 00/M03 A2993 RMK AO2
                 P0000 T00001033 =
2018-02-17 15:59 METAR KENW 172159Z 27006KT 1 3/4SM -SN BKN025 OVC033 01/M04 A2993 RMK AO2 P0000
                 T00061039 =
2018-02-17 15:53 METAR KENW 172153Z 28008KT 3SM -SN BKN027 OVC037 01/M04 A2993 RMK AO2 SNB44
                 SLP146 P0000 T00061044 =
2018-02-17 14:53 METAR KENW 172053Z 21007KT 10SM FEW047 BKN055 OVC070 02/M05 A2991 RMK AO2 SLP139
                 T00171050 56028 =
2018-02-17 13:53 METAR KENW 171953Z 18008KT 10SM OVC055 01/M05 A2991 RMK AO2 SLP140 T00111050 =
2018-02-17 12:53 METAR KENW 171853Z VRB05KT 10SM SCT060 BKN080 OVC090 01/M06 A2994 RMK AO2 SLP150
                 T00061056 =
2018-02-17 11:53 METAR KENW 171753Z 24010KT 10SM OVC090 00/M08 A3000 RMK AO2 SLP168 T00001083
                 10000 21089 58019 =
2018-02-17 10:53 METAR KENW 171653Z 23009KT 10SM OVC090 M01/M10 A3003 RMK AO2 SLP180 T10111100 =
2018-02-17 09:53 METAR KENW 171553Z 22009KT 10SM BKN110 M04/M12 A3005 RMK AO2 SLP187 T10391122 =
2018-02-17 08:53 METAR KENW 171453Z 21010KT 10SM CLR M06/M14 A3005 RMK AO2 SLP190 T10561144 58019
                 =
2018-02-17 07:53 METAR KENW 171353Z 19007KT 10SM CLR M07/M14 A3008 RMK AO2 SLP197 T10721144 =
2018-02-17 06:53 METAR KENW 171253Z COR 20007KT 10SM CLR M08/M14 A3009 RMK AO2 SLP202 T10781139 =
2018-02-17 05:53 METAR KENW 171153Z AUTO 22005KT 10SM CLR M09/M14 A3011 RMK AO2 SLP209 T10891139
                 11083 21094 56019 =
2018-02-17 04:53 METAR KENW 171053Z AUTO 23005KT 10SM CLR M09/M14 A3012 RMK AO2 SLP210 T10941139
                 =
2018-02-17 03:53 METAR KENW 170953Z AUTO 21008KT 10SM CLR M08/M14 A3012 RMK AO2 SLP212 T10831139
                 =
2018-02-17 02:53 METAR KENW 170853Z AUTO 23006KT 10SM CLR M08/M13 A3017 RMK AO2 SLP227 T10831133
                 58020 =
2018-02-17 01:53 METAR KENW 170753Z AUTO 22006KT 10SM CLR M09/M14 A3019 RMK AO2 SLP235 T10891144
                 =
2018-02-17 00:53 METAR KENW 170653Z AUTO 22005KT 10SM CLR M08/M14 A3021 RMK AO2 SLP243 T10831144
                 =
2018-02-16 23:53 METAR KENW 170553Z AUTO 22004KT 10SM CLR M08/M14 A3022 RMK AO2 SLP247 T10831139
                 11039 21089 400171089 56009 =
2018-02-16 22:53 METAR KENW 170453Z AUTO 24007KT 10SM CLR M08/M14 A3023 RMK AO2 SLP249 T10781139
                 =
2018-02-16 21:53 METAR KENW 170353Z AUTO 25006KT 10SM CLR M07/M13 A3024 RMK AO2 SLP251 T10721128
                 =

Support USWX by starting your Amazon purchase here.